Time;durP1;ratioP1;P1;durP2;ratioP2;P2;SDS_P1;SDS_P2;PMS_P1;PMS_P2;Temp;Humidity;BMP_temperature;BMP_pressure;BME280_temperature;BME280_humidity;BME280_pressure;Samples;Min_cycle;Max_cycle;Signal;HPM_P1;HPM_P2
2022/08/27 00:02:03;;;;;;;5.82;2.05;;;21.10;59.50;;;;;;5097515;28;20016;-63
2022/08/27 00:04:29;;;;;;;6.60;2.10;;;21.10;59.60;;;;;;5095065;28;20035;-63
2022/08/27 00:06:55;;;;;;;5.15;2.05;;;21.10;59.70;;;;;;5098181;28;20028;-62
2022/08/27 00:09:21;;;;;;;6.43;2.28;;;21.10;59.80;;;;;;5096206;28;20028;-63
2022/08/27 00:11:46;;;;;;;6.28;1.98;;;21.10;59.90;;;;;;5094089;28;20764;-63
2022/08/27 00:14:13;;;;;;;8.63;2.10;;;21.00;59.80;;;;;;5086694;28;20081;-63
2022/08/27 00:16:39;;;;;;;5.10;1.85;;;21.10;59.90;;;;;;5097943;28;20039;-63
2022/08/27 00:19:05;;;;;;;4.72;2.03;;;21.00;59.90;;;;;;5076609;28;20036;-62
2022/08/27 00:21:31;;;;;;;5.43;2.00;;;21.10;60.00;;;;;;5073225;28;20366;-63
2022/08/27 00:23:58;;;;;;;5.97;2.03;;;21.10;60.00;;;;;;5077914;28;20020;-62
2022/08/27 00:26:24;;;;;;;4.85;1.70;;;21.10;59.90;;;;;;5097854;28;20024;-63
2022/08/27 00:28:50;;;;;;;5.80;1.88;;;21.10;59.90;;;;;;5097863;28;20028;-63
2022/08/27 00:31:16;;;;;;;5.95;2.10;;;21.10;59.90;;;;;;5095318;28;20023;-63
2022/08/27 00:33:42;;;;;;;7.90;2.20;;;21.00;59.80;;;;;;5078813;28;20446;-63
2022/08/27 00:36:09;;;;;;;7.47;2.20;;;21.00;59.80;;;;;;5087415;28;20042;-63
2022/08/27 00:38:37;;;;;;;7.57;2.05;;;21.00;59.90;;;;;;5097716;28;20086;-63
2022/08/27 00:41:04;;;;;;;5.22;1.73;;;21.00;59.90;;;;;;5063523;28;20067;-63
2022/08/27 00:43:44;;;;;;;7.20;1.92;;;20.90;59.80;;;;;;5073413;28;20453;-63
2022/08/27 00:46:22;;;;;;;5.63;1.88;;;21.00;59.80;;;;;;5071968;28;20036;-63
2022/08/27 00:48:51;;;;;;;5.70;2.15;;;21.00;59.80;;;;;;5097414;28;20031;-63
2022/08/27 00:51:20;;;;;;;6.10;1.95;;;20.90;59.70;;;;;;5094726;28;20059;-63
2022/08/27 00:53:45;;;;;;;5.63;1.95;;;21.00;59.70;;;;;;5077878;28;20024;-63
2022/08/27 00:56:16;;;;;;;5.97;1.88;;;21.00;59.60;;;;;;5078323;28;20043;-63
2022/08/27 00:58:46;;;;;;;5.25;2.10;;;21.00;59.60;;;;;;5095192;28;20471;-63
2022/08/27 01:01:17;;;;;;;5.55;2.28;;;21.00;59.50;;;;;;5077299;28;20016;-63
2022/08/27 01:03:45;;;;;;;;;;;21.00;59.60;;;;;;5056950;28;20024;-62
2022/08/27 01:06:14;;;;;;;4.85;1.60;;;21.00;59.60;;;;;;5093580;28;19915;-63
2022/08/27 01:08:48;;;;;;;6.13;2.03;;;21.00;59.60;;;;;;5062390;28;20345;-63
2022/08/27 01:11:14;;;;;;;4.70;1.67;;;21.00;59.60;;;;;;5074708;28;20089;-62
2022/08/27 01:13:41;;;;;;;6.30;1.92;;;21.00;59.60;;;;;;5094217;28;20059;-63
2022/08/27 01:16:09;;;;;;;6.78;2.30;;;21.00;59.60;;;;;;5095136;28;20070;-63
2022/08/27 01:18:36;;;;;;;6.90;2.20;;;21.00;59.70;;;;;;5096959;28;20028;-64
2022/08/27 01:21:17;;;;;;;7.72;2.10;;;21.00;59.60;;;;;;5077071;28;20181;-63
2022/08/27 01:23:57;;;;;;;6.78;1.65;;;21.00;59.60;;;;;;5083034;28;20035;-63
2022/08/27 01:26:24;;;;;;;7.85;2.17;;;21.00;59.70;;;;;;5078210;28;20036;-62
2022/08/27 01:28:51;;;;;;;6.38;2.08;;;21.00;59.60;;;;;;5095894;28;20024;-63
2022/08/27 01:31:17;;;;;;;8.38;2.42;;;21.00;59.70;;;;;;5093882;28;20039;-63
2022/08/27 01:34:00;;;;;;;7.13;2.30;;;21.00;59.70;;;;;;5095179;28;20020;-62
2022/08/27 01:36:26;;;;;;;6.47;2.60;;;20.90;59.60;;;;;;5095038;28;20111;-63
2022/08/27 01:38:52;;;;;;;5.25;2.30;;;20.90;59.70;;;;;;5077897;28;20060;-63
2022/08/27 01:41:18;;;;;;;5.85;2.20;;;20.90;59.70;;;;;;5094459;28;20019;-63
2022/08/27 01:43:43;;;;;;;6.97;2.10;;;20.90;59.70;;;;;;5058784;28;20074;-63
2022/08/27 01:46:09;;;;;;;4.85;2.00;;;20.90;59.80;;;;;;5076675;28;20376;-63
2022/08/27 01:48:35;;;;;;;6.35;2.10;;;20.90;59.80;;;;;;5078434;28;20120;-63
2022/08/27 01:51:00;;;;;;;6.15;2.00;;;20.90;59.90;;;;;;5069833;28;20090;-63
2022/08/27 01:53:26;;;;;;;5.50;1.92;;;20.80;59.80;;;;;;5094182;28;20020;-63
2022/08/27 01:55:54;;;;;;;6.03;2.35;;;20.90;59.80;;;;;;5088240;28;20116;-63
2022/08/27 01:58:26;;;;;;;5.97;2.47;;;20.90;59.80;;;;;;5070424;28;20089;-63
2022/08/27 02:00:55;;;;;;;9.02;2.40;;;20.90;59.80;;;;;;5073946;28;20027;-63
2022/08/27 02:03:21;;;;;;;5.63;2.08;;;20.90;59.80;;;;;;5076729;28;20448;-63
2022/08/27 02:05:47;;;;;;;6.38;2.10;;;20.90;59.80;;;;;;5095045;28;20023;-63
2022/08/27 02:08:15;;;;;;;5.35;2.08;;;20.90;59.70;;;;;;5095981;28;20039;-62
2022/08/27 02:10:42;;;;;;;8.10;2.53;;;20.90;59.70;;;;;;5092877;28;20032;-63
2022/08/27 02:13:08;;;;;;;6.53;2.42;;;20.90;59.70;;;;;;5058277;28;20115;-63
2022/08/27 02:15:35;;;;;;;5.55;2.17;;;20.90;59.80;;;;;;5093995;28;20046;-63
2022/08/27 02:18:03;;;;;;;5.30;1.92;;;20.90;59.70;;;;;;5093708;28;20077;-63
2022/08/27 02:20:30;;;;;;;6.28;2.17;;;20.90;59.80;;;;;;5095872;28;20065;-63
2022/08/27 02:22:56;;;;;;;7.10;2.05;;;20.80;59.70;;;;;;5093894;28;20051;-63
2022/08/27 02:25:21;;;;;;;6.15;2.10;;;20.80;60.40;;;;;;5088602;28;20036;-63
2022/08/27 02:27:48;;;;;;;5.80;1.80;;;20.80;59.70;;;;;;5093758;28;20390;-63
2022/08/27 02:30:19;;;;;;;6.80;2.10;;;20.80;59.70;;;;;;5095653;28;20349;-63
2022/08/27 02:32:46;;;;;;;5.13;2.10;;;20.80;59.70;;;;;;5089108;28;20032;-63
2022/08/27 02:35:16;;;;;;;5.38;2.05;;;20.70;59.70;;;;;;5094349;28;20131;-63
2022/08/27 02:37:43;;;;;;;6.87;2.27;;;20.70;59.70;;;;;;5075053;28;20358;-63
2022/08/27 02:40:15;;;;;;;6.13;2.38;;;20.70;59.70;;;;;;5095251;28;20428;-62
2022/08/27 02:42:42;;;;;;;5.25;2.00;;;20.70;59.80;;;;;;5074752;28;20481;-63
2022/08/27 02:45:08;;;;;;;6.50;2.20;;;20.70;59.80;;;;;;5089146;28;20115;-63
2022/08/27 02:47:34;;;;;;;6.75;2.10;;;20.60;59.80;;;;;;5088681;28;20024;-62
2022/08/27 02:50:00;;;;;;;6.95;2.30;;;20.60;59.90;;;;;;5076714;28;20040;-63
2022/08/27 02:52:28;;;;;;;5.10;1.92;;;20.60;59.80;;;;;;5093326;28;20036;-63
2022/08/27 02:54:57;;;;;;;5.38;2.00;;;20.60;59.80;;;;;;5075128;28;20036;-63
2022/08/27 02:57:24;;;;;;;6.28;1.85;;;20.60;59.70;;;;;;5073361;28;20453;-62
2022/08/27 02:59:52;;;;;;;6.38;2.20;;;20.60;59.70;;;;;;5094606;28;20039;-63
2022/08/27 03:02:19;;;;;;;5.70;1.92;;;20.60;59.70;;;;;;5067167;28;20056;-63
2022/08/27 03:04:44;;;;;;;5.28;2.30;;;20.50;59.70;;;;;;5093360;28;20058;-62
2022/08/27 03:07:11;;;;;;;7.13;2.22;;;20.50;59.70;;;;;;5071996;28;20028;-63
2022/08/27 03:09:37;;;;;;;4.97;2.20;;;20.50;59.80;;;;;;5075839;28;20039;-63
2022/08/27 03:12:03;;;;;;;5.30;2.15;;;20.50;59.80;;;;;;5090244;28;20067;-63
2022/08/27 03:14:28;;;;;;;7.53;2.55;;;20.40;59.70;;;;;;5075027;28;20547;-63
2022/08/27 03:16:54;;;;;;;6.00;2.08;;;20.40;59.70;;;;;;5074767;28;20082;-63
2022/08/27 03:19:20;;;;;;;7.07;2.35;;;20.40;59.60;;;;;;5075615;28;20402;-63
2022/08/27 03:21:47;;;;;;;5.72;2.30;;;20.40;59.60;;;;;;5091299;28;20048;-62
2022/08/27 03:24:13;;;;;;;7.07;2.42;;;20.40;59.60;;;;;;5091152;28;20073;-63
2022/08/27 03:26:39;;;;;;;5.70;2.05;;;20.40;59.60;;;;;;5092464;28;20027;-62
2022/08/27 03:29:06;;;;;;;5.93;2.20;;;20.40;59.70;;;;;;5075278;28;20056;-62
2022/08/27 03:31:32;;;;;;;6.22;2.22;;;20.40;59.60;;;;;;5087995;28;20030;-62
2022/08/27 03:34:02;;;;;;;5.50;2.20;;;20.40;59.50;;;;;;5079558;28;20032;-62
2022/08/27 03:36:29;;;;;;;7.15;2.50;;;20.40;59.40;;;;;;5082076;28;20032;-63
2022/08/27 03:38:55;;;;;;;7.22;2.15;;;20.40;59.40;;;;;;5084320;28;20084;-63
2022/08/27 03:41:22;;;;;;;8.77;2.40;;;20.40;59.40;;;;;;5084424;28;20494;-63
2022/08/27 03:43:48;;;;;;;7.22;2.55;;;20.40;59.30;;;;;;5074742;28;20020;-62
2022/08/27 03:46:15;;;;;;;7.53;2.63;;;20.40;59.40;;;;;;5085257;28;20063;-63
2022/08/27 03:48:41;;;;;;;6.22;2.38;;;20.40;59.40;;;;;;5086422;28;20367;-63
2022/08/27 03:51:10;;;;;;;7.70;2.88;;;20.40;59.40;;;;;;5087439;28;20049;-62
2022/08/27 03:53:40;;;;;;;6.00;2.15;;;20.40;59.40;;;;;;5069850;28;20131;-63
2022/08/27 03:56:06;;;;;;;6.22;2.30;;;20.40;59.40;;;;;;5084552;28;20042;-62
2022/08/27 03:58:34;;;;;;;6.80;2.38;;;20.40;59.50;;;;;;5057240;28;20043;-63
2022/08/27 04:01:00;;;;;;;5.80;2.42;;;20.30;59.40;;;;;;5071118;28;20464;-63
2022/08/27 04:03:26;;;;;;;6.85;2.58;;;20.30;59.50;;;;;;5086569;28;20356;-63
2022/08/27 04:05:55;;;;;;;7.00;2.70;;;20.30;59.50;;;;;;5086873;28;20033;-63
2022/08/27 04:08:21;;;;;;;8.43;2.47;;;20.30;59.50;;;;;;5091272;28;20035;-62
2022/08/27 04:10:48;;;;;;;6.53;2.20;;;20.30;59.60;;;;;;5084940;28;20112;-63
2022/08/27 04:13:16;;;;;;;7.53;2.30;;;20.30;59.50;;;;;;5086760;28;20047;-62
2022/08/27 04:15:47;;;;;;;7.38;2.30;;;20.40;59.60;;;;;;5071619;28;20058;-63
2022/08/27 04:18:15;;;;;;;;;;;20.30;59.50;;;;;;5090695;28;20103;-62
2022/08/27 04:20:45;;;;;;;7.35;2.47;;;20.30;59.50;;;;;;5086746;28;20320;-62
2022/08/27 04:23:13;;;;;;;7.00;2.55;;;20.30;59.60;;;;;;5088114;28;20028;-63
2022/08/27 04:25:41;;;;;;;6.43;2.50;;;20.30;59.60;;;;;;5065187;28;20135;-63
2022/08/27 04:28:07;;;;;;;6.57;2.28;;;20.30;59.60;;;;;;5074717;28;20063;-62
2022/08/27 04:30:37;;;;;;;7.20;2.40;;;20.30;59.60;;;;;;5050521;28;20031;-62
2022/08/27 04:33:03;;;;;;;5.50;2.20;;;20.30;59.70;;;;;;5072352;28;20500;-62
2022/08/27 04:35:28;;;;;;;7.15;2.42;;;20.30;59.70;;;;;;5091583;28;20063;-63
2022/08/27 04:37:54;;;;;;;6.43;2.45;;;20.30;59.70;;;;;;5074802;28;20079;-62
2022/08/27 04:40:20;;;;;;;5.78;2.30;;;20.30;59.70;;;;;;5086583;28;20055;-63
2022/08/27 04:42:45;;;;;;;7.20;2.70;;;20.30;60.30;;;;;;5075537;28;20424;-63
2022/08/27 04:45:11;;;;;;;7.32;2.60;;;20.30;59.70;;;;;;5090417;28;20376;-63
2022/08/27 04:47:37;;;;;;;7.68;3.10;;;20.30;59.70;;;;;;5097113;28;20028;-63
2022/08/27 04:50:03;;;;;;;6.40;2.60;;;20.20;59.70;;;;;;5075825;28;20031;-63
2022/08/27 04:52:28;;;;;;;5.30;2.38;;;20.20;59.70;;;;;;5094933;28;20086;-63
2022/08/27 04:54:54;;;;;;;7.35;2.72;;;20.20;59.70;;;;;;5090614;28;20460;-63
2022/08/27 04:57:20;;;;;;;6.03;2.35;;;20.20;59.80;;;;;;5089420;28;20040;-63
2022/08/27 04:59:46;;;;;;;6.93;2.67;;;20.10;59.90;;;;;;5075451;28;20016;-62
2022/08/27 05:02:11;;;;;;;6.90;2.70;;;20.10;59.90;;;;;;5097271;28;20031;-62
2022/08/27 05:04:39;;;;;;;6.97;2.90;;;20.10;59.90;;;;;;5048410;28;20041;-62
2022/08/27 05:07:06;;;;;;;6.03;2.30;;;20.10;60.00;;;;;;5091106;28;20173;-62
2022/08/27 05:09:32;;;;;;;7.50;2.80;;;20.10;60.70;;;;;;5087461;28;20038;-62
2022/08/27 05:11:57;;;;;;;5.63;2.50;;;20.10;60.00;;;;;;5095610;28;20417;-63
2022/08/27 05:14:28;;;;;;;6.25;2.75;;;20.10;60.00;;;;;;5084610;28;20103;-62
2022/08/27 05:16:55;;;;;;;6.50;2.72;;;20.00;60.00;;;;;;5072486;28;20013;-62
2022/08/27 05:19:21;;;;;;;7.50;2.40;;;20.00;60.10;;;;;;5076809;28;20032;-62
2022/08/27 05:21:49;;;;;;;7.18;2.80;;;20.00;60.10;;;;;;5093333;28;20028;-62
2022/08/27 05:24:16;;;;;;;5.70;2.13;;;20.00;60.10;;;;;;5094077;28;20105;-64
2022/08/27 05:26:42;;;;;;;7.00;2.50;;;20.00;60.20;;;;;;5078751;28;20020;-62
2022/08/27 05:29:08;;;;;;;6.15;2.33;;;20.00;60.10;;;;;;5093736;28;20451;-63
2022/08/27 05:31:34;;;;;;;6.07;2.60;;;20.00;60.10;;;;;;5096638;28;20032;-63
2022/08/27 05:34:00;;;;;;;8.65;2.58;;;20.00;60.20;;;;;;5077729;28;20034;-63
2022/08/27 05:36:29;;;;;;;7.70;2.80;;;19.90;60.10;;;;;;5096556;28;20032;-62
2022/08/27 05:38:56;;;;;;;8.63;2.80;;;20.00;60.90;;;;;;5074318;28;20078;-63
2022/08/27 05:41:26;;;;;;;7.45;2.85;;;19.90;60.30;;;;;;5068215;28;20409;-62
2022/08/27 05:43:56;;;;;;;8.15;2.65;;;20.00;60.40;;;;;;5095117;28;20097;-62
2022/08/27 05:46:24;;;;;;;8.33;3.23;;;19.90;60.30;;;;;;5096634;28;20028;-64
2022/08/27 05:48:51;;;;;;;5.53;2.65;;;19.90;60.40;;;;;;5091842;28;20032;-64
2022/08/27 05:51:22;;;;;;;7.88;2.85;;;20.00;60.40;;;;;;5062744;28;20095;-63
2022/08/27 05:53:48;;;;;;;;;;;19.90;60.40;;;;;;5094062;28;20036;-63
2022/08/27 05:56:15;;;;;;;7.57;2.60;;;20.00;60.30;;;;;;5093996;28;19969;-63
2022/08/27 06:01:26;;;;;;;5.00;2.20;;;20.00;60.30;;;;;;5083990;28;20024;-63
2022/08/27 06:03:53;;;;;;;5.95;2.33;;;20.10;60.20;;;;;;5092093;28;20035;-62
2022/08/27 06:06:21;;;;;;;7.68;2.63;;;20.20;60.10;;;;;;5077876;28;20433;-63
2022/08/27 06:08:48;;;;;;;6.07;2.05;;;20.20;59.90;;;;;;5075524;28;20057;-63
2022/08/27 06:11:14;;;;;;;6.50;2.75;;;20.30;59.90;;;;;;5092057;28;20028;-63
2022/08/27 06:13:40;;;;;;;7.60;2.80;;;20.30;59.90;;;;;;5091207;28;20044;-63
2022/08/27 06:16:08;;;;;;;6.57;2.50;;;20.40;59.70;;;;;;5082903;28;20043;-64
2022/08/27 06:18:37;;;;;;;7.15;2.60;;;20.60;59.50;;;;;;5086313;28;20020;-63
2022/08/27 06:21:04;;;;;;;6.35;2.28;;;21.20;58.70;;;;;;5081789;28;20035;-64
2022/08/27 06:23:30;;;;;;;8.13;2.92;;;22.10;57.20;;;;;;5076406;28;20016;-64
2022/08/27 06:25:57;;;;;;;6.80;2.72;;;23.00;55.50;;;;;;5080090;28;20033;-63
2022/08/27 06:28:25;;;;;;;7.90;2.50;;;23.70;54.10;;;;;;5077822;28;20029;-63
2022/08/27 06:30:50;;;;;;;6.28;2.13;;;24.10;52.90;;;;;;5075961;28;20374;-63
2022/08/27 06:33:16;;;;;;;7.47;2.83;;;24.20;52.40;;;;;;5070690;28;20066;-63
2022/08/27 06:35:42;;;;;;;5.65;2.30;;;24.10;52.40;;;;;;5060988;28;20032;-63
2022/08/27 06:38:08;;;;;;;6.15;2.17;;;24.00;52.60;;;;;;5080658;28;20036;-64
2022/08/27 06:40:34;;;;;;;7.50;2.08;;;23.90;52.60;;;;;;5083199;28;20365;-64
2022/08/27 06:43:00;;;;;;;6.38;2.15;;;23.80;52.60;;;;;;5081994;28;20066;-64
2022/08/27 06:45:25;;;;;;;5.35;2.08;;;23.80;52.70;;;;;;5080538;28;20056;-64
2022/08/27 06:47:51;;;;;;;6.65;1.90;;;23.80;52.50;;;;;;5078505;28;20086;-70
2022/08/27 06:50:19;;;;;;;6.65;2.28;;;23.70;52.30;;;;;;5067909;28;20698;-63
2022/08/27 06:52:46;;;;;;;5.43;2.30;;;23.80;52.10;;;;;;5080286;28;20024;-63
2022/08/27 06:55:12;;;;;;;5.88;2.03;;;23.70;52.00;;;;;;5081780;28;20115;-63
2022/08/27 06:57:38;;;;;;;5.72;1.92;;;23.70;51.90;;;;;;5095244;28;20046;-63
2022/08/27 07:00:05;;;;;;;7.25;2.00;;;23.80;51.90;;;;;;5095437;28;20092;-63
2022/08/27 07:02:31;;;;;;;5.70;1.98;;;23.90;51.80;;;;;;5093904;28;20028;-63
2022/08/27 07:04:57;;;;;;;4.85;1.92;;;23.90;51.70;;;;;;5093333;28;20047;-63
2022/08/27 07:07:22;;;;;;;5.13;2.03;;;23.90;51.60;;;;;;5059604;28;20116;-63
2022/08/27 07:09:48;;;;;;;6.85;2.30;;;24.00;51.40;;;;;;5095512;28;20075;-63
2022/08/27 07:12:14;;;;;;;3.35;1.38;;;24.00;51.40;;;;;;5094726;28;20126;-64
2022/08/27 07:14:41;;;;;;;6.22;1.73;;;24.10;51.30;;;;;;5094824;28;20234;-64
2022/08/27 07:17:07;;;;;;;4.30;1.60;;;24.20;51.20;;;;;;5090238;28;20028;-64
2022/08/27 07:19:37;;;;;;;4.70;1.73;;;24.30;51.70;;;;;;5094605;28;20055;-64
2022/08/27 07:22:03;;;;;;;6.13;1.90;;;24.40;50.80;;;;;;5094830;28;20089;-64
2022/08/27 07:24:29;;;;;;;6.45;1.73;;;24.50;50.40;;;;;;5076894;28;20039;-65
2022/08/27 07:26:55;;;;;;;5.30;1.58;;;24.50;50.10;;;;;;5094916;28;20428;-64
2022/08/27 07:29:20;;;;;;;6.20;1.75;;;24.60;50.00;;;;;;5089477;28;20032;-65
2022/08/27 07:31:47;;;;;;;5.75;1.83;;;24.60;50.00;;;;;;5072069;28;20038;-64
2022/08/27 07:34:13;;;;;;;5.75;2.20;;;24.70;49.90;;;;;;5076556;28;20028;-64
2022/08/27 07:36:39;;;;;;;5.93;1.60;;;24.90;49.80;;;;;;5074267;28;20035;-64
2022/08/27 07:39:06;;;;;;;5.25;1.65;;;25.00;50.20;;;;;;5087203;28;20034;-64
2022/08/27 07:44:23;;;;;;;6.03;1.63;;;25.10;49.50;;;;;;5077029;28;20518;-66
2022/08/27 07:44:25;;;;;;;5.50;1.30;;;25.20;49.20;;;;;;5066282;28;20028;-64
2022/08/27 07:46:51;;;;;;;7.07;1.45;;;25.30;49.70;;;;;;5070851;28;20047;-65
2022/08/27 07:49:17;;;;;;;4.00;1.13;;;25.40;48.90;;;;;;5093532;28;20441;-65
2022/08/27 07:51:44;;;;;;;4.10;1.40;;;25.30;48.80;;;;;;5074515;28;20123;-66
2022/08/27 07:54:09;;;;;;;5.05;1.50;;;25.20;48.90;;;;;;5058017;28;21655;-65
2022/08/27 07:56:35;;;;;;;5.13;1.30;;;25.30;49.00;;;;;;5087129;28;20032;-65
2022/08/27 07:59:01;;;;;;;4.43;1.52;;;25.30;48.90;;;;;;5092251;28;20411;-65
2022/08/27 08:01:28;;;;;;;1.83;1.02;;;25.40;48.70;;;;;;5084847;28;20345;-66
2022/08/27 08:03:54;;;;;;;3.72;1.40;;;25.60;48.40;;;;;;5069841;28;20039;-66
2022/08/27 08:06:20;;;;;;;4.18;1.52;;;25.60;48.20;;;;;;5075220;28;20431;-65
2022/08/27 08:08:46;;;;;;;6.75;1.58;;;25.70;48.10;;;;;;5058890;28;20126;-66
2022/08/27 08:11:15;;;;;;;4.65;1.13;;;25.80;47.90;;;;;;5062341;28;20472;-66
2022/08/27 08:13:42;;;;;;;3.78;1.40;;;25.90;47.60;;;;;;5066811;28;20110;-65
2022/08/27 08:16:07;;;;;;;4.45;1.42;;;26.10;47.30;;;;;;5091238;28;20036;-64
2022/08/27 08:18:34;;;;;;;5.13;1.40;;;25.90;47.10;;;;;;5096284;28;20020;-65
2022/08/27 08:21:04;;;;;;;4.50;1.40;;;25.50;47.40;;;;;;5097952;28;20352;-66
2022/08/27 08:23:31;;;;;;;5.57;1.33;;;25.20;47.60;;;;;;5094366;28;20441;-66
2022/08/27 08:25:58;;;;;;;3.10;1.00;;;25.10;47.90;;;;;;5044428;28;20017;-66
2022/08/27 08:28:24;;;;;;;3.20;1.10;;;25.10;47.90;;;;;;5089400;28;20396;-64
2022/08/27 08:30:52;;;;;;;3.90;1.30;;;25.20;47.80;;;;;;5073745;28;20123;-64
2022/08/27 08:33:17;;;;;;;6.07;1.10;;;25.10;47.80;;;;;;5076620;28;20512;-63
2022/08/27 08:35:43;;;;;;;5.65;1.50;;;24.90;47.80;;;;;;5078205;28;20115;-63
2022/08/27 08:38:09;;;;;;;2.90;1.13;;;24.70;47.90;;;;;;5076736;28;20372;-64
2022/08/27 08:40:49;;;;;;;3.75;1.10;;;24.70;48.00;;;;;;5096650;28;20034;-63
2022/08/27 08:43:42;;;;;;;3.75;1.20;;;24.70;47.60;;;;;;5094305;28;20107;-63
2022/08/27 08:46:17;;;;;;;6.10;1.42;;;24.80;47.70;;;;;;5076801;28;20042;-63
2022/08/27 08:48:47;;;;;;;5.57;1.30;;;24.70;47.90;;;;;;5088583;28;20032;-63
2022/08/27 08:51:21;;;;;;;5.22;1.30;;;24.60;48.10;;;;;;5068937;28;20036;-63
2022/08/27 08:53:53;;;;;;;5.20;1.13;;;24.60;48.80;;;;;;5076685;28;20039;-64
2022/08/27 08:56:39;;;;;;;4.50;1.25;;;24.40;48.30;;;;;;5077148;28;20468;-63
2022/08/27 08:59:14;;;;;;;4.88;1.30;;;24.30;48.50;;;;;;5075513;28;20024;-63
2022/08/27 09:01:41;;;;;;;5.28;1.50;;;24.20;48.80;;;;;;5078655;28;20417;-64
2022/08/27 09:04:10;;;;;;;4.38;1.58;;;24.30;48.80;;;;;;5071230;28;20024;-63
2022/08/27 09:07:01;;;;;;;4.75;1.40;;;24.40;48.70;;;;;;5067585;28;20032;-63
2022/08/27 09:09:47;;;;;;;4.23;1.30;;;24.30;48.50;;;;;;5070120;28;20032;-64
2022/08/27 09:12:18;;;;;;;4.50;1.10;;;24.30;48.70;;;;;;5061229;28;20742;-64
2022/08/27 09:14:53;;;;;;;7.45;1.58;;;24.20;48.80;;;;;;5074155;28;20036;-64
2022/08/27 09:17:19;;;;;;;8.55;2.28;;;24.20;49.00;;;;;;5078609;28;20036;-63
2022/08/27 09:19:45;;;;;;;6.10;1.40;;;24.10;49.20;;;;;;5086214;28;20017;-63
2022/08/27 09:22:23;;;;;;;5.78;1.60;;;24.00;49.30;;;;;;5073678;28;20028;-63
2022/08/27 09:25:04;;;;;;;17.17;1.98;;;24.00;49.40;;;;;;5084954;28;20028;-64
2022/08/27 09:27:31;;;;;;;7.80;1.35;;;23.90;49.50;;;;;;5060669;28;20352;-64
2022/08/27 09:29:56;;;;;;;3.60;1.30;;;24.30;49.20;;;;;;5083259;28;20127;-65
2022/08/27 09:32:33;;;;;;;4.72;1.55;;;24.70;48.40;;;;;;5055065;28;20177;-64
2022/08/27 09:35:02;;;;;;;5.88;1.70;;;25.20;47.50;;;;;;5086614;28;20127;-64
2022/08/27 09:37:37;;;;;;;5.10;1.50;;;25.60;46.90;;;;;;5085699;28;20030;-64
2022/08/27 09:40:21;;;;;;;5.10;1.42;;;25.80;46.50;;;;;;5090388;28;20070;-62
2022/08/27 09:42:52;;;;;;;5.45;1.42;;;25.90;46.20;;;;;;5074342;28;20012;-63
2022/08/27 09:45:20;;;;;;;3.65;1.40;;;25.90;46.00;;;;;;5088857;28;20032;-65
2022/08/27 09:47:49;;;;;;;4.25;1.50;;;26.00;46.10;;;;;;5077528;28;20053;-64
2022/08/27 09:50:19;;;;;;;3.78;1.20;;;26.00;46.10;;;;;;5096690;28;20046;-64
2022/08/27 09:52:53;;;;;;;5.30;1.20;;;25.90;46.10;;;;;;5077135;28;20322;-64
2022/08/27 09:55:52;;;;;;;2.65;1.15;;;25.80;46.10;;;;;;5074499;28;20032;-65
2022/08/27 09:58:23;;;;;;;4.13;1.50;;;25.80;46.00;;;;;;5095089;28;20025;-65
2022/08/27 10:01:06;;;;;;;3.50;1.20;;;26.00;46.50;;;;;;5094461;28;20036;-64
2022/08/27 10:03:32;;;;;;;5.55;1.30;;;26.40;45.50;;;;;;5087356;28;20028;-65
2022/08/27 10:05:58;;;;;;;2.78;1.08;;;26.80;45.00;;;;;;5093558;28;20117;-65
2022/08/27 10:08:46;;;;;;;3.50;1.20;;;26.80;44.90;;;;;;5065064;28;20048;-65
2022/08/27 10:11:30;;;;;;;4.32;1.42;;;26.60;45.10;;;;;;5091762;28;20032;-65
2022/08/27 10:14:15;;;;;;;4.70;1.40;;;26.30;45.20;;;;;;5092998;28;20066;-65
2022/08/27 10:17:01;;;;;;;5.20;1.50;;;26.00;45.60;;;;;;5063173;28;20033;-65
2022/08/27 10:19:42;;;;;;;4.50;1.25;;;25.90;46.10;;;;;;5094872;28;20033;-63
2022/08/27 10:22:32;;;;;;;2.67;1.20;;;25.70;46.20;;;;;;5070985;28;20028;-64
2022/08/27 10:24:58;;;;;;;6.03;1.83;;;25.60;46.60;;;;;;5081177;28;20446;-64
2022/08/27 10:27:48;;;;;;;4.75;1.30;;;25.50;46.80;;;;;;5072595;28;20058;-64
2022/08/27 10:30:18;;;;;;;3.43;1.37;;;25.40;47.00;;;;;;5085294;28;20123;-62
2022/08/27 10:33:05;;;;;;;3.60;1.20;;;25.30;47.10;;;;;;5088124;28;20036;-63
2022/08/27 10:35:57;;;;;;;4.28;1.30;;;25.20;47.30;;;;;;5077774;28;20032;-63
2022/08/27 10:38:37;;;;;;;5.32;1.38;;;25.10;47.30;;;;;;5094721;28;20020;-63
2022/08/27 10:41:27;;;;;;;5.05;1.40;;;25.10;47.40;;;;;;5090942;28;20023;-63
2022/08/27 10:44:30;;;;;;;3.92;1.35;;;25.10;47.30;;;;;;5086023;28;20522;-63
2022/08/27 10:47:14;;;;;;;3.40;1.30;;;25.10;47.30;;;;;;5093017;28;20032;-63
2022/08/27 10:49:52;;;;;;;4.50;1.27;;;25.10;47.30;;;;;;5095230;28;20028;-63
2022/08/27 10:52:48;;;;;;;3.30;1.25;;;25.00;47.30;;;;;;5095591;28;20084;-63
2022/08/27 10:55:21;;;;;;;3.00;1.13;;;25.20;46.80;;;;;;5094007;28;20466;-63
2022/08/27 10:58:07;;;;;;;3.53;1.50;;;25.40;46.90;;;;;;5077003;28;20024;-63
2022/08/27 11:01:22;;;;;;;3.17;1.02;;;25.80;46.30;;;;;;5077554;28;20028;-63
2022/08/27 11:04:13;;;;;;;4.88;1.23;;;26.10;45.50;;;;;;5013369;28;20480;-63
2022/08/27 11:06:45;;;;;;;3.00;1.27;;;26.10;45.40;;;;;;5013539;28;20045;-63
2022/08/27 11:09:22;;;;;;;4.47;1.33;;;26.10;45.50;;;;;;5012582;28;20034;-64
2022/08/27 11:11:54;;;;;;;3.88;1.13;;;26.20;45.50;;;;;;5013200;28;20474;-64
2022/08/27 11:14:29;;;;;;;5.05;1.30;;;26.10;45.30;;;;;;5013299;28;20034;-64
2022/08/27 11:17:08;;;;;;;4.10;1.42;;;25.90;45.40;;;;;;5013596;28;20054;-63
2022/08/27 11:19:54;;;;;;;3.88;1.10;;;25.90;45.60;;;;;;5013276;28;20054;-63
2022/08/27 11:22:30;;;;;;;2.53;0.95;;;25.80;45.50;;;;;;4996949;28;20049;-64
2022/08/27 11:25:16;;;;;;;2.53;0.98;;;25.70;45.70;;;;;;5025980;28;20394;-64
2022/08/27 11:27:43;;;;;;;3.63;1.30;;;25.70;45.90;;;;;;5013030;28;20057;-63
2022/08/27 11:30:19;;;;;;;2.83;1.40;;;25.60;46.00;;;;;;5009735;28;20050;-63
2022/08/27 11:33:03;;;;;;;4.60;1.33;;;25.60;46.10;;;;;;5010689;28;20479;-63
2022/08/27 11:36:00;;;;;;;2.92;1.20;;;25.50;46.20;;;;;;4990406;28;20051;-63
2022/08/27 11:38:44;;;;;;;4.68;1.45;;;25.50;46.30;;;;;;5072532;28;20436;-63
2022/08/27 11:41:17;;;;;;;3.92;1.27;;;25.80;46.20;;;;;;5062821;28;20090;-64
2022/08/27 11:43:43;;;;;;;3.70;1.23;;;26.10;46.30;;;;;;5057669;28;20024;-63
2022/08/27 11:46:10;;;;;;;2.47;1.02;;;26.30;45.50;;;;;;5094348;28;20036;-64
2022/08/27 11:48:40;;;;;;;3.10;1.10;;;26.60;45.00;;;;;;5085395;28;20028;-63
2022/08/27 11:51:13;;;;;;;2.83;1.00;;;26.70;44.50;;;;;;5074760;28;20470;-64
2022/08/27 11:53:52;;;;;;;3.22;1.20;;;26.70;44.40;;;;;;5092133;28;20032;-63
2022/08/27 11:56:35;;;;;;;3.35;1.13;;;26.60;44.40;;;;;;5086377;28;20036;-64
2022/08/27 11:59:22;;;;;;;5.93;1.55;;;26.50;44.50;;;;;;5086517;28;20337;-63
2022/08/27 12:01:52;;;;;;;4.03;1.60;;;26.40;44.60;;;;;;5088514;28;20024;-64
2022/08/27 12:04:30;;;;;;;4.00;1.35;;;26.30;45.00;;;;;;5073621;28;20395;-63
2022/08/27 12:07:26;;;;;;;4.43;1.33;;;26.20;45.10;;;;;;5061790;28;20358;-63
2022/08/27 12:09:54;;;;;;;5.05;1.60;;;26.00;45.30;;;;;;5089954;28;20024;-63
2022/08/27 12:12:48;;;;;;;3.50;1.38;;;25.90;45.70;;;;;;5072679;28;21000;-63
2022/08/27 12:15:21;;;;;;;4.03;1.40;;;25.90;45.90;;;;;;5052292;28;20036;-63
2022/08/27 12:18:05;;;;;;;5.97;1.60;;;25.80;46.10;;;;;;5072417;28;20505;-63
2022/08/27 12:20:53;;;;;;;4.93;1.52;;;25.60;46.10;;;;;;5075426;28;20020;-63
2022/08/27 12:23:39;;;;;;;4.03;1.52;;;25.60;46.30;;;;;;5080395;28;20093;-63
2022/08/27 12:26:24;;;;;;;7.70;1.77;;;25.50;46.30;;;;;;5076614;28;20452;-62
2022/08/27 12:29:10;;;;;;;4.90;1.50;;;25.40;46.60;;;;;;5062394;28;20468;-63
2022/08/27 12:31:41;;;;;;;4.70;1.75;;;25.30;46.70;;;;;;5064628;28;20036;-70
2022/08/27 12:34:21;;;;;;;4.40;1.30;;;25.30;46.80;;;;;;5053726;28;20039;-69
2022/08/27 12:36:50;;;;;;;4.45;1.40;;;25.30;47.20;;;;;;5076358;28;20024;-70
2022/08/27 12:39:19;;;;;;;5.93;1.35;;;25.30;46.50;;;;;;5091956;28;20107;-63
2022/08/27 12:41:48;;;;;;;6.43;1.63;;;25.30;46.40;;;;;;5082843;28;21966;-63
2022/08/27 12:44:28;;;;;;;4.10;1.50;;;25.30;46.30;;;;;;5069960;28;20024;-63
2022/08/27 12:47:04;;;;;;;3.97;1.30;;;25.40;46.20;;;;;;5066147;28;20073;-63
2022/08/27 12:49:46;;;;;;;4.18;1.40;;;25.40;46.20;;;;;;5082384;28;20040;-63
2022/08/27 12:52:37;;;;;;;6.82;1.73;;;25.40;46.20;;;;;;5051600;28;20020;-63
2022/08/27 12:55:21;;;;;;;5.32;1.50;;;25.40;46.10;;;;;;5056314;28;20032;-63
2022/08/27 12:58:10;;;;;;;3.83;1.30;;;25.40;46.20;;;;;;5050287;28;20024;-63
2022/08/27 13:01:00;;;;;;;3.22;1.35;;;25.40;46.20;;;;;;5053599;28;20020;-63
2022/08/27 13:03:42;;;;;;;4.30;1.27;;;25.40;46.30;;;;;;5068283;28;20043;-63
2022/08/27 13:06:33;;;;;;;4.50;1.65;;;25.50;46.30;;;;;;5065392;28;20349;-63
2022/08/27 13:09:07;;;;;;;5.10;1.13;;;25.50;46.10;;;;;;5081449;28;20071;-63
2022/08/27 13:11:47;;;;;;;3.20;1.27;;;25.50;46.20;;;;;;5057385;28;20089;-63